createdAt,value
2023-01-13T00:04:22.193Z,16.65
2023-01-13T00:09:24.284Z,14.50
2023-01-13T00:14:27.302Z,12.70
2023-01-13T00:19:29.670Z,11.50
2023-01-13T00:24:31.782Z,11.65
2023-01-13T00:29:33.893Z,10.90
2023-01-13T00:34:36.094Z,11.25
2023-01-13T00:39:38.162Z,10.27
2023-01-13T00:44:40.203Z,11.85
2023-01-13T00:49:42.256Z,9.98
2023-01-13T00:54:44.315Z,10.57
2023-01-13T00:59:47.999Z,9.30
2023-01-13T01:04:51.547Z,9.85
2023-01-13T01:09:53.774Z,9.65
2023-01-13T01:14:55.952Z,9.40
2023-01-13T01:19:58.062Z,8.68
2023-01-13T01:25:00.198Z,8.57
2023-01-13T01:30:02.244Z,8.13
2023-01-13T01:35:05.175Z,9.02
2023-01-13T01:40:07.609Z,8.85
2023-01-13T01:45:21.688Z,8.63
2023-01-13T01:50:24.408Z,8.32
2023-01-13T01:55:31.151Z,9.98
2023-01-13T02:00:33.439Z,8.52
2023-01-13T02:05:35.982Z,8.15
2023-01-13T02:10:40.077Z,8.20
2023-01-13T02:16:05.361Z,8.23
2023-01-13T02:21:54.521Z,8.23
2023-01-13T02:27:14.769Z,8.50
2023-01-13T02:32:30.065Z,8.48
2023-01-13T02:37:36.455Z,9.02
2023-01-13T02:43:04.738Z,10.15
2023-01-13T02:48:09.459Z,11.82
2023-01-13T02:53:18.571Z,8.98
2023-01-13T02:58:25.339Z,9.73
2023-01-13T03:03:27.425Z,8.98
2023-01-13T03:09:15.135Z,8.93
2023-01-13T03:14:51.052Z,8.63
2023-01-13T03:20:04.385Z,9.60
2023-01-13T03:25:23.100Z,8.95
2023-01-13T03:30:45.106Z,9.38
2023-01-13T03:35:52.576Z,9.77
2023-01-13T03:40:59.548Z,9.02
2023-01-13T03:46:09.203Z,9.85
2023-01-13T03:51:18.402Z,9.32
2023-01-13T03:56:27.155Z,10.25
2023-01-13T04:01:42.412Z,10.43
2023-01-13T04:06:47.041Z,10.30
2023-01-13T04:12:09.784Z,10.38
2023-01-13T04:17:12.289Z,10.48
2023-01-13T04:22:14.409Z,10.45
2023-01-13T04:27:16.460Z,11.23
2023-01-13T04:32:18.866Z,11.57
2023-01-13T04:37:20.999Z,10.70
2023-01-13T04:42:23.041Z,16.33
2023-01-13T04:47:25.188Z,18.23
2023-01-13T04:52:27.325Z,16.65
2023-01-13T04:57:30.023Z,16.75
2023-01-13T05:02:32.245Z,18.90
2023-01-13T05:07:34.472Z,15.55
2023-01-13T05:12:55.009Z,14.48
2023-01-13T05:17:57.582Z,15.82
2023-01-13T05:23:18.181Z,14.75
2023-01-13T05:28:20.409Z,17.30
2023-01-13T05:33:22.567Z,17.15
2023-01-13T05:38:24.659Z,16.52
2023-01-13T05:43:27.912Z,16.13
2023-01-13T05:48:34.063Z,19.88
2023-01-13T05:53:36.847Z,26.20
2023-01-13T05:58:39.372Z,29.85
2023-01-13T06:03:41.585Z,26.08
2023-01-13T06:08:43.729Z,22.85
2023-01-13T06:13:45.933Z,24.63
2023-01-13T06:18:48.148Z,28.13
2023-01-13T06:23:50.257Z,22.58
2023-01-13T06:28:52.478Z,21.15
2023-01-13T06:34:05.826Z,19.80
2023-01-13T06:39:09.834Z,18.70
2023-01-13T06:44:12.233Z,21.80
2023-01-13T06:49:14.479Z,22.90
2023-01-13T06:54:16.712Z,24.20
2023-01-13T06:59:18.931Z,20.17
2023-01-13T07:04:21.106Z,20.75
2023-01-13T07:09:23.374Z,21.55
2023-01-13T07:14:45.016Z,21.98
2023-01-13T07:19:47.218Z,19.38
2023-01-13T07:24:49.518Z,17.35
2023-01-13T07:29:51.610Z,15.95
2023-01-13T07:34:53.768Z,15.80
2023-01-13T07:39:55.903Z,15.43
2023-01-13T07:44:58.070Z,16.33
2023-01-13T07:50:00.224Z,14.85
2023-01-13T07:55:02.450Z,15.35
2023-01-13T08:00:05.998Z,14.18
2023-01-13T08:05:09.040Z,14.00
2023-01-13T08:10:11.619Z,14.30
2023-01-13T08:15:16.432Z,13.57
2023-01-13T08:20:19.522Z,12.98
2023-01-13T08:25:27.216Z,13.48
2023-01-13T08:30:30.032Z,11.90
2023-01-13T08:35:32.253Z,12.13
2023-01-13T08:40:34.593Z,12.25
2023-01-13T08:45:36.972Z,11.13
2023-01-13T08:50:39.160Z,10.45
2023-01-13T08:55:41.486Z,10.38
2023-01-13T09:00:45.093Z,11.32
2023-01-13T09:05:47.637Z,10.70
2023-01-13T09:10:49.889Z,11.73
2023-01-13T09:15:56.239Z,11.40
2023-01-13T09:20:59.516Z,11.05
2023-01-13T09:26:01.900Z,10.57
2023-01-13T09:31:04.344Z,10.52
2023-01-13T09:36:08.022Z,10.45
2023-01-13T09:41:45.844Z,11.20
2023-01-13T09:46:53.744Z,11.05
2023-01-13T09:52:02.840Z,10.38
2023-01-13T09:57:13.234Z,10.32
2023-01-13T10:02:22.235Z,10.77
2023-01-13T10:07:24.654Z,14.48
2023-01-13T10:12:45.833Z,11.20
2023-01-13T10:18:18.980Z,10.50
2023-01-13T10:23:38.209Z,11.63
2023-01-13T10:28:40.414Z,11.10
2023-01-13T10:33:42.706Z,11.48
2023-01-13T10:38:50.447Z,9.90
2023-01-13T10:43:52.469Z,11.43
2023-01-13T10:48:56.601Z,11.68
2023-01-13T10:54:14.528Z,10.00
2023-01-13T10:59:27.519Z,11.23
2023-01-13T11:04:38.761Z,9.27
2023-01-13T11:09:41.640Z,9.73
2023-01-13T11:14:45.769Z,8.05
2023-01-13T11:20:05.455Z,7.63
2023-01-13T11:25:15.870Z,9.73
2023-01-13T11:30:44.443Z,8.23
2023-01-13T11:36:17.801Z,7.82
2023-01-13T11:41:47.650Z,7.47
2023-01-13T11:46:55.153Z,8.35
2023-01-13T11:52:16.231Z,6.70
2023-01-13T11:57:35.691Z,6.40
2023-01-13T12:03:05.244Z,6.20
2023-01-13T12:08:46.360Z,4.90
2023-01-13T12:19:19.079Z,4.60
2023-01-13T12:24:41.743Z,5.78
2023-01-13T12:29:46.771Z,4.55
2023-01-13T12:35:23.780Z,4.63
2023-01-13T12:40:49.177Z,4.00
2023-01-13T12:45:52.585Z,3.97
2023-01-13T12:51:01.305Z,3.67
2023-01-13T12:56:25.148Z,4.10
2023-01-13T13:01:36.648Z,4.45
2023-01-13T13:06:44.117Z,3.78
2023-01-13T13:12:03.995Z,3.05
2023-01-13T13:17:29.637Z,4.05
2023-01-13T13:22:45.157Z,4.28
2023-01-13T13:28:21.025Z,3.80
2023-01-13T13:33:48.307Z,4.45
2023-01-13T13:39:17.372Z,4.35
2023-01-13T13:44:40.885Z,4.30
2023-01-13T13:49:54.907Z,4.07
2023-01-13T13:55:05.466Z,4.30
2023-01-13T14:00:18.412Z,3.80
2023-01-13T14:05:29.513Z,4.78
2023-01-13T14:11:03.368Z,5.88
2023-01-13T14:16:15.810Z,4.03
2023-01-13T14:21:25.896Z,3.97
2023-01-13T14:26:31.322Z,4.47
2023-01-13T14:31:41.385Z,4.30
2023-01-13T14:36:43.881Z,4.47
2023-01-13T14:41:48.687Z,5.70
2023-01-13T14:46:52.013Z,7.30
2023-01-13T14:51:54.845Z,6.47
2023-01-13T14:57:23.609Z,8.45
2023-01-13T15:02:26.089Z,8.18
2023-01-13T15:07:32.662Z,7.43
2023-01-13T15:12:40.290Z,8.13
2023-01-13T15:17:42.898Z,14.57
2023-01-13T15:22:45.543Z,17.52
2023-01-13T15:27:52.757Z,18.27
2023-01-13T15:32:58.761Z,18.85
2023-01-13T15:38:02.615Z,19.88
2023-01-13T15:43:23.513Z,19.73
2023-01-13T15:48:28.500Z,18.20
2023-01-13T15:53:30.752Z,17.92
2023-01-13T15:58:33.160Z,17.33
2023-01-13T16:03:35.555Z,17.35
2023-01-13T16:08:39.410Z,17.52
2023-01-13T16:13:41.591Z,16.98
2023-01-13T16:18:43.828Z,15.82
2023-01-13T16:23:46.011Z,18.15
2023-01-13T16:28:48.746Z,16.67
2023-01-13T16:33:51.658Z,17.35
2023-01-13T16:38:54.443Z,17.55
2023-01-13T16:43:56.631Z,18.55
2023-01-13T16:49:03.783Z,16.75
2023-01-13T16:54:06.266Z,16.05
2023-01-13T16:59:17.369Z,17.48
2023-01-13T17:04:22.163Z,18.45
2023-01-13T17:09:26.769Z,24.70
2023-01-13T17:14:29.010Z,23.25
2023-01-13T17:19:31.182Z,18.38
2023-01-13T17:24:35.580Z,20.75
2023-01-13T17:29:38.575Z,25.23
2023-01-13T17:34:40.764Z,16.65
2023-01-13T17:39:44.722Z,14.70
2023-01-13T17:44:48.614Z,16.77
2023-01-13T17:49:50.950Z,17.33
2023-01-13T17:54:53.373Z,16.20
2023-01-13T17:59:55.614Z,24.10
2023-01-13T18:04:57.821Z,22.60
2023-01-13T18:10:00.168Z,26.83
2023-01-13T18:15:02.445Z,32.17
2023-01-13T18:26:09.652Z,26.40
2023-01-13T18:31:12.071Z,27.52
2023-01-13T18:36:14.515Z,28.70
2023-01-13T18:41:36.111Z,28.25
2023-01-13T18:46:38.862Z,27.33
2023-01-13T18:51:41.365Z,28.38
2023-01-13T18:56:44.390Z,29.63
2023-01-13T19:01:46.697Z,28.48
2023-01-13T19:06:51.884Z,28.88
2023-01-13T19:11:54.079Z,26.83
2023-01-13T19:16:56.331Z,27.27
2023-01-13T19:21:58.792Z,30.83
2023-01-13T19:27:01.113Z,26.88
2023-01-13T19:32:03.564Z,32.58
2023-01-13T19:37:07.151Z,42.53
2023-01-13T19:42:30.817Z,35.72
2023-01-13T19:47:34.385Z,32.30
2023-01-13T19:52:36.857Z,22.40
2023-01-13T19:57:40.769Z,28.50
2023-01-13T20:02:49.723Z,21.30
2023-01-13T20:13:18.602Z,14.85
2023-01-13T20:18:21.113Z,11.93
2023-01-13T20:23:26.260Z,12.07
2023-01-13T20:28:28.685Z,16.48
2023-01-13T20:33:30.969Z,23.85
2023-01-13T20:38:38.986Z,14.60
2023-01-13T20:43:41.248Z,13.25
2023-01-13T20:48:43.473Z,15.40
2023-01-13T20:53:45.749Z,14.45
2023-01-13T20:58:47.946Z,25.98
2023-01-13T21:03:50.639Z,16.80
2023-01-13T21:08:54.673Z,14.13
2023-01-13T21:14:16.362Z,15.98
2023-01-13T21:19:18.606Z,22.52
2023-01-13T21:24:21.198Z,17.13
2023-01-13T21:29:23.569Z,15.55
2023-01-13T21:34:25.891Z,18.23
2023-01-13T21:39:28.990Z,32.42
2023-01-13T21:44:49.913Z,23.52
2023-01-13T21:49:52.220Z,11.73
2023-01-13T21:55:13.026Z,12.50
2023-01-13T22:05:20.744Z,13.73
2023-01-13T22:10:25.958Z,26.58
2023-01-13T22:15:29.952Z,23.70
2023-01-13T22:20:32.174Z,15.05
2023-01-13T22:25:34.398Z,20.67
2023-01-13T22:30:36.835Z,22.92
2023-01-13T22:35:38.978Z,21.92
2023-01-13T22:40:41.141Z,17.60
2023-01-13T22:45:43.328Z,14.52
2023-01-13T22:50:45.930Z,15.57
2023-01-13T22:55:58.629Z,16.35
2023-01-13T23:01:17.695Z,19.02
2023-01-13T23:06:21.076Z,18.30
2023-01-13T23:11:25.603Z,15.13
2023-01-13T23:16:30.154Z,14.40
2023-01-13T23:21:36.334Z,11.93
2023-01-13T23:26:38.559Z,11.68
2023-01-13T23:31:41.394Z,14.65
2023-01-13T23:36:43.964Z,15.20
2023-01-13T23:41:46.144Z,16.85
2023-01-13T23:46:48.412Z,15.30
2023-01-13T23:51:51.894Z,15.43
2023-01-13T23:56:56.193Z,13.52
